createdAt,value
2019-03-26T00:00:08.520Z,100052.80
2019-03-26T00:02:37.656Z,100041.56
2019-03-26T00:05:07.011Z,100048.70
2019-03-26T00:07:36.139Z,100048.70
2019-03-26T00:10:05.938Z,100052.39
2019-03-26T00:12:35.103Z,100052.39
2019-03-26T00:15:05.507Z,100042.58
2019-03-26T00:17:34.708Z,100051.94
2019-03-26T00:20:04.924Z,100055.30
2019-03-26T00:22:34.123Z,100048.29
2019-03-26T00:25:03.577Z,100044.88
2019-03-26T00:27:32.784Z,100057.95
2019-03-26T00:30:01.907Z,100074.20
2019-03-26T00:32:30.948Z,100077.42
2019-03-26T00:35:00.362Z,100078.33
2019-03-26T00:37:29.599Z,100094.91
2019-03-26T00:39:58.679Z,100064.02
2019-03-26T00:42:27.909Z,100069.34
2019-03-26T00:44:57.041Z,100078.84
2019-03-26T00:47:26.236Z,100077.40
2019-03-26T00:49:55.405Z,100077.40
2019-03-26T00:52:24.459Z,100086.42
2019-03-26T00:54:53.547Z,100085.80
2019-03-26T00:57:22.637Z,100085.80
2019-03-26T00:59:51.832Z,100086.48
2019-03-26T01:02:21.032Z,100092.40
2019-03-26T01:04:50.124Z,100099.15
2019-03-26T01:07:19.387Z,100081.00
2019-03-26T01:09:48.519Z,100081.00
2019-03-26T01:12:17.701Z,100085.53
2019-03-26T01:14:46.905Z,100081.50
2019-03-26T01:17:16.035Z,100092.55
2019-03-26T01:19:45.139Z,100089.73
2019-03-26T01:22:14.404Z,100085.33
2019-03-26T01:24:43.524Z,100096.39
2019-03-26T01:27:12.778Z,100099.64
2019-03-26T01:29:41.845Z,100093.70
2019-03-26T01:32:11.057Z,100093.48
2019-03-26T01:34:45.942Z,100091.45
2019-03-26T01:37:11.076Z,100096.00
2019-03-26T01:39:40.273Z,100091.98
2019-03-26T01:42:09.501Z,100102.14
2019-03-26T01:44:38.653Z,100099.93
2019-03-26T01:47:07.874Z,100108.95
2019-03-26T01:49:36.966Z,100119.85
2019-03-26T01:52:06.169Z,100122.11
2019-03-26T01:54:35.303Z,100121.14
2019-03-26T01:57:04.553Z,100117.34
2019-03-26T01:59:33.756Z,100120.94
2019-03-26T02:02:02.820Z,100129.41
2019-03-26T02:04:31.966Z,100129.88
2019-03-26T02:07:01.115Z,100126.91
2019-03-26T02:09:30.338Z,100134.09
2019-03-26T02:11:59.561Z,100140.20
2019-03-26T02:14:28.703Z,100136.02
2019-03-26T02:16:57.984Z,100133.84
2019-03-26T02:19:27.145Z,100137.77
2019-03-26T02:21:56.283Z,100137.66
2019-03-26T02:24:25.356Z,100142.37
2019-03-26T02:26:54.588Z,100147.32
2019-03-26T02:29:23.784Z,100144.42
2019-03-26T02:31:52.853Z,100150.33
2019-03-26T02:34:22.122Z,100152.63
2019-03-26T02:36:51.320Z,100158.59
2019-03-26T02:39:20.476Z,100156.55
2019-03-26T02:41:49.620Z,100153.45
2019-03-26T02:44:18.877Z,100150.44
2019-03-26T02:46:48.052Z,100154.99
2019-03-26T02:49:17.233Z,100163.18
2019-03-26T02:51:46.431Z,100153.91
2019-03-26T02:54:15.483Z,100165.55
2019-03-26T02:56:44.720Z,100169.09
2019-03-26T02:59:13.910Z,100170.05
2019-03-26T03:01:43.107Z,100172.13
2019-03-26T03:04:12.349Z,100177.58
2019-03-26T03:06:41.541Z,100171.00
2019-03-26T03:09:10.701Z,100166.93
2019-03-26T03:11:39.931Z,100166.43
2019-03-26T03:14:09.142Z,100162.64
2019-03-26T03:16:38.272Z,100165.54
2019-03-26T03:19:07.500Z,100170.41
2019-03-26T03:21:36.560Z,100169.14
2019-03-26T03:24:05.755Z,100169.14
2019-03-26T03:26:34.917Z,100168.66
2019-03-26T03:29:04.333Z,100160.06
2019-03-26T03:31:33.403Z,100155.30
2019-03-26T03:34:02.696Z,100166.23
2019-03-26T03:36:32.430Z,100169.80
2019-03-26T03:39:01.637Z,100176.58
2019-03-26T03:41:30.859Z,100172.23
2019-03-26T03:43:59.944Z,100173.09
2019-03-26T03:46:29.153Z,100174.31
2019-03-26T03:48:59.242Z,100176.97
2019-03-26T03:51:29.946Z,100171.09
2019-03-26T03:53:59.742Z,100156.30
2019-03-26T03:56:31.599Z,100176.47
2019-03-26T03:59:02.479Z,100176.94
2019-03-26T04:01:31.612Z,100169.88
2019-03-26T04:04:00.711Z,100170.31
2019-03-26T04:06:29.902Z,100170.02
2019-03-26T04:08:59.068Z,100176.47
2019-03-26T04:11:28.433Z,100171.27
2019-03-26T04:13:57.610Z,100179.69
2019-03-26T04:16:26.807Z,100191.14
2019-03-26T04:18:56.043Z,100192.78
2019-03-26T04:21:25.212Z,100196.29
2019-03-26T04:23:54.457Z,100200.23
2019-03-26T04:26:23.615Z,100203.44
2019-03-26T04:28:52.748Z,100196.11
2019-03-26T04:31:21.800Z,100202.76
2019-03-26T04:33:50.994Z,100218.42
2019-03-26T04:36:26.147Z,100219.18
2019-03-26T04:38:50.941Z,100222.36
2019-03-26T04:41:20.179Z,100228.27
2019-03-26T04:43:49.387Z,100235.10
2019-03-26T04:46:18.533Z,100244.25
2019-03-26T04:48:47.740Z,100244.25
2019-03-26T04:51:16.910Z,100245.88
2019-03-26T04:53:46.165Z,100249.73
2019-03-26T04:56:15.380Z,100251.78
2019-03-26T04:58:44.503Z,100252.18
2019-03-26T05:01:13.621Z,100257.77
2019-03-26T05:03:42.791Z,100262.35
2019-03-26T05:06:11.980Z,100268.00
2019-03-26T05:08:41.105Z,100270.22
2019-03-26T05:11:10.343Z,100277.88
2019-03-26T05:13:39.533Z,100285.55
2019-03-26T05:16:08.663Z,100290.84
2019-03-26T05:18:37.826Z,100296.75
2019-03-26T05:21:07.031Z,100300.22
2019-03-26T05:23:36.165Z,100299.06
2019-03-26T05:26:05.483Z,100293.84
2019-03-26T05:28:34.551Z,100303.26
2019-03-26T05:31:03.679Z,100296.88
2019-03-26T05:33:32.765Z,100303.92
2019-03-26T05:36:01.888Z,100305.37
2019-03-26T05:38:31.009Z,100308.48
2019-03-26T05:41:00.168Z,100301.97
2019-03-26T05:43:29.435Z,100311.45
2019-03-26T05:45:58.632Z,100311.38
2019-03-26T05:48:27.794Z,100311.81
2019-03-26T05:50:56.838Z,100319.94
2019-03-26T05:53:25.893Z,100316.57
2019-03-26T05:55:54.987Z,100323.73
2019-03-26T05:58:24.030Z,100322.94
2019-03-26T06:00:53.236Z,100340.70
2019-03-26T06:03:22.426Z,100340.70
2019-03-26T06:05:51.561Z,100343.78
2019-03-26T06:08:20.687Z,100350.42
2019-03-26T06:10:49.825Z,100362.84
2019-03-26T06:13:19.075Z,100362.84
2019-03-26T06:15:48.213Z,100371.53
2019-03-26T06:18:17.371Z,100372.92
2019-03-26T06:20:46.576Z,100373.22
2019-03-26T06:23:15.782Z,100373.20
2019-03-26T06:25:44.866Z,100377.06
2019-03-26T06:28:14.052Z,100368.43
2019-03-26T06:30:43.230Z,100375.16
2019-03-26T06:33:12.490Z,100380.98
2019-03-26T06:35:41.680Z,100379.27
2019-03-26T06:38:10.805Z,100384.63
2019-03-26T06:40:40.059Z,100389.14
2019-03-26T06:43:09.258Z,100389.14
2019-03-26T06:45:38.453Z,100392.96
2019-03-26T06:48:07.692Z,100397.27
2019-03-26T06:50:36.868Z,100394.09
2019-03-26T06:53:06.070Z,100405.70
2019-03-26T06:55:35.337Z,100403.13
2019-03-26T06:58:04.479Z,100405.73
2019-03-26T07:00:34.872Z,100412.18
2019-03-26T07:03:06.311Z,100410.71
2019-03-26T07:05:35.516Z,100419.06
2019-03-26T07:08:04.993Z,100418.03
2019-03-26T07:10:34.228Z,100428.28
2019-03-26T07:13:03.349Z,100419.53
2019-03-26T07:15:32.545Z,100433.20
2019-03-26T07:18:01.717Z,100431.76
2019-03-26T07:20:30.911Z,100431.75
2019-03-26T07:23:00.149Z,100432.63
2019-03-26T07:25:29.390Z,100428.75
2019-03-26T07:27:58.699Z,100429.53
2019-03-26T07:30:41.740Z,100430.73
2019-03-26T07:33:11.243Z,100433.83
2019-03-26T07:35:41.164Z,100440.27
2019-03-26T07:38:10.399Z,100440.02
2019-03-26T07:40:39.601Z,100448.38
2019-03-26T07:43:08.891Z,100442.44
2019-03-26T07:45:38.222Z,100444.64
2019-03-26T07:48:07.423Z,100446.71
2019-03-26T07:50:36.630Z,100442.59
2019-03-26T07:53:05.878Z,100446.71
2019-03-26T07:55:35.081Z,100450.72
2019-03-26T07:58:04.286Z,100451.36
2019-03-26T08:00:35.320Z,100453.78
2019-03-26T08:03:05.144Z,100446.44
2019-03-26T08:05:34.338Z,100447.62
2019-03-26T08:08:03.585Z,100448.69
2019-03-26T08:10:32.784Z,100451.05
2019-03-26T08:13:02.006Z,100447.46
2019-03-26T08:15:31.280Z,100449.92
2019-03-26T08:18:00.407Z,100455.98
2019-03-26T08:20:29.600Z,100460.14
2019-03-26T08:22:58.840Z,100457.44
2019-03-26T08:25:28.183Z,100460.30
2019-03-26T08:27:57.344Z,100466.38
2019-03-26T08:30:26.490Z,100468.73
2019-03-26T08:32:55.643Z,100466.33
2019-03-26T08:35:24.845Z,100477.02
2019-03-26T08:37:54.098Z,100477.89
2019-03-26T08:40:23.610Z,100469.42
2019-03-26T08:42:53.080Z,100471.32
2019-03-26T08:45:22.424Z,100471.53
2019-03-26T08:47:51.639Z,100482.23
2019-03-26T08:50:20.855Z,100480.78
2019-03-26T08:52:50.101Z,100477.09
2019-03-26T08:55:19.389Z,100484.39
2019-03-26T08:57:48.599Z,100492.52
2019-03-26T09:00:18.142Z,100485.75
2019-03-26T09:02:47.349Z,100497.97
2019-03-26T09:05:16.667Z,100499.92
2019-03-26T09:07:45.922Z,100492.42
2019-03-26T09:10:15.559Z,100493.34
2019-03-26T09:12:44.784Z,100490.12
2019-03-26T09:15:14.793Z,100495.66
2019-03-26T09:17:44.859Z,100497.16
2019-03-26T09:20:15.185Z,100494.83
2019-03-26T09:22:44.364Z,100493.69
2019-03-26T09:25:14.065Z,100491.61
2019-03-26T09:27:43.364Z,100487.63
2019-03-26T09:30:13.207Z,100479.11
2019-03-26T09:32:43.855Z,100494.78
2019-03-26T09:35:13.555Z,100492.13
2019-03-26T09:37:42.734Z,100488.80
2019-03-26T09:40:12.474Z,100485.03
2019-03-26T09:42:41.853Z,100476.23
2019-03-26T09:45:11.899Z,100485.07
2019-03-26T09:47:41.158Z,100486.09
2019-03-26T09:50:11.868Z,100483.98
2019-03-26T09:52:41.145Z,100474.01
2019-03-26T09:55:10.847Z,100482.34
2019-03-26T09:57:40.045Z,100489.34
2019-03-26T10:00:10.996Z,100487.21
2019-03-26T10:02:43.087Z,100485.97
2019-03-26T10:05:11.440Z,100486.54
2019-03-26T10:07:40.812Z,100476.20
2019-03-26T10:10:10.971Z,100480.00
2019-03-26T10:12:40.166Z,100488.31
2019-03-26T10:15:10.042Z,100486.17
2019-03-26T10:17:39.302Z,100491.86
2019-03-26T10:20:08.819Z,100487.14
2019-03-26T10:22:40.984Z,100487.03
2019-03-26T10:25:11.516Z,100503.14
2019-03-26T10:27:41.054Z,100493.81
2019-03-26T10:30:13.049Z,100496.31
2019-03-26T10:32:42.314Z,100498.42
2019-03-26T10:35:12.052Z,100492.19
2019-03-26T10:37:41.330Z,100495.70
2019-03-26T10:40:12.736Z,100498.92
2019-03-26T10:42:41.990Z,100505.70
2019-03-26T10:45:11.722Z,100499.80
2019-03-26T10:47:40.929Z,100489.35
2019-03-26T10:50:10.253Z,100508.91
2019-03-26T10:52:39.575Z,100505.20
2019-03-26T10:55:08.986Z,100505.05
2019-03-26T10:57:38.219Z,100505.55
2019-03-26T11:00:08.148Z,100503.80
2019-03-26T11:02:37.380Z,100511.08
2019-03-26T11:05:07.593Z,100504.38
2019-03-26T11:07:36.902Z,100502.05
2019-03-26T11:10:07.953Z,100503.25
2019-03-26T11:12:37.219Z,100504.65
2019-03-26T11:15:07.678Z,100507.97
2019-03-26T11:17:37.021Z,100506.70
2019-03-26T11:20:08.149Z,100508.07
2019-03-26T11:22:37.385Z,100505.91
2019-03-26T11:25:11.859Z,100508.70
2019-03-26T11:27:39.680Z,100503.47
2019-03-26T11:30:09.717Z,100491.89
2019-03-26T11:32:38.940Z,100498.72
2019-03-26T11:35:09.938Z,100497.75
2019-03-26T11:37:39.894Z,100495.40
2019-03-26T11:40:10.019Z,100490.27
2019-03-26T11:42:39.238Z,100498.37
2019-03-26T11:45:10.752Z,100487.66
2019-03-26T11:47:40.769Z,100485.67
2019-03-26T11:50:10.756Z,100486.70
2019-03-26T11:52:40.629Z,100486.70
2019-03-26T11:55:11.332Z,100487.43
2019-03-26T11:57:40.546Z,100472.62
2019-03-26T12:00:12.917Z,100477.91
2019-03-26T12:02:42.063Z,100474.70
2019-03-26T12:05:11.426Z,100472.64
2019-03-26T12:07:42.951Z,100470.91
2019-03-26T12:10:11.806Z,100465.45
2019-03-26T12:12:41.018Z,100469.34
2019-03-26T12:15:10.619Z,100459.41
2019-03-26T12:17:39.831Z,100461.08
2019-03-26T12:20:09.893Z,100457.81
2019-03-26T12:22:39.017Z,100457.00
2019-03-26T12:25:08.778Z,100449.55
2019-03-26T12:27:37.992Z,100459.57
2019-03-26T12:30:08.587Z,100464.67
2019-03-26T12:32:40.739Z,100462.42
2019-03-26T12:35:11.396Z,100457.02
2019-03-26T12:37:40.543Z,100454.95
2019-03-26T12:40:10.062Z,100454.38
2019-03-26T12:42:39.457Z,100452.23
2019-03-26T12:45:09.100Z,100452.00
2019-03-26T12:47:38.223Z,100447.09
2019-03-26T12:50:08.659Z,100446.56
2019-03-26T12:52:37.812Z,100443.02
2019-03-26T12:55:07.291Z,100443.40
2019-03-26T12:57:36.588Z,100440.27
2019-03-26T13:00:07.514Z,100440.05
2019-03-26T13:02:36.720Z,100442.41
2019-03-26T13:05:09.159Z,100438.61
2019-03-26T13:07:38.371Z,100444.08
2019-03-26T13:10:13.840Z,100443.23
2019-03-26T13:12:40.685Z,100447.05
2019-03-26T13:15:09.894Z,100425.08
2019-03-26T13:17:39.101Z,100434.73
2019-03-26T13:20:08.637Z,100442.13
2019-03-26T13:22:37.964Z,100434.49
2019-03-26T13:25:08.866Z,100430.56
2019-03-26T13:27:38.023Z,100430.09
2019-03-26T13:30:09.523Z,100432.47
2019-03-26T13:32:38.737Z,100435.09
2019-03-26T13:35:08.779Z,100438.02
2019-03-26T13:37:38.001Z,100437.22
2019-03-26T13:40:07.511Z,100435.56
2019-03-26T13:42:36.741Z,100438.23
2019-03-26T13:45:08.241Z,100435.45
2019-03-26T13:47:37.537Z,100432.61
2019-03-26T13:50:08.420Z,100436.13
2019-03-26T13:52:37.830Z,100447.61
2019-03-26T13:55:08.930Z,100442.88
2019-03-26T13:57:38.108Z,100439.33
2019-03-26T14:00:08.982Z,100440.22
2019-03-26T14:02:38.197Z,100443.95
2019-03-26T14:05:12.995Z,100435.77
2019-03-26T14:07:42.090Z,100436.81
2019-03-26T14:10:11.495Z,100433.09
2019-03-26T14:12:40.595Z,100429.02
2019-03-26T14:15:10.423Z,100421.45
2019-03-26T14:17:39.712Z,100432.37
2019-03-26T14:20:09.392Z,100429.46
2019-03-26T14:22:38.537Z,100430.08
2019-03-26T14:25:08.147Z,100433.71
2019-03-26T14:27:37.409Z,100429.48
2019-03-26T14:30:08.908Z,100429.11
2019-03-26T14:32:38.049Z,100424.44
2019-03-26T14:35:07.882Z,100421.51
2019-03-26T14:37:50.286Z,100420.31
2019-03-26T14:40:08.352Z,100421.36
2019-03-26T14:42:37.531Z,100429.71
2019-03-26T14:45:08.086Z,100415.80
2019-03-26T14:47:37.295Z,100418.03
2019-03-26T14:50:07.937Z,100417.81
2019-03-26T14:52:37.006Z,100420.60
2019-03-26T14:55:08.206Z,100419.17
2019-03-26T14:57:37.452Z,100421.16
2019-03-26T15:00:09.985Z,100422.10
2019-03-26T15:02:39.288Z,100423.19
2019-03-26T15:05:08.795Z,100423.87
2019-03-26T15:07:37.849Z,100418.28
2019-03-26T15:10:07.851Z,100419.13
2019-03-26T15:12:37.022Z,100408.09
2019-03-26T15:15:06.712Z,100413.95
2019-03-26T15:17:35.924Z,100412.11
2019-03-26T15:20:07.118Z,100405.16
2019-03-26T15:22:36.266Z,100404.82
2019-03-26T15:25:06.776Z,100409.16
2019-03-26T15:27:36.024Z,100400.84
2019-03-26T15:30:09.458Z,100398.61
2019-03-26T15:32:38.662Z,100403.30
2019-03-26T15:35:08.508Z,100396.95
2019-03-26T15:37:37.708Z,100404.73
2019-03-26T15:40:08.783Z,100400.09
2019-03-26T15:42:38.217Z,100400.42
2019-03-26T15:45:09.285Z,100395.70
2019-03-26T15:47:38.500Z,100400.20
2019-03-26T15:50:08.553Z,100397.55
2019-03-26T15:52:37.917Z,100393.61
2019-03-26T15:55:09.023Z,100402.23
2019-03-26T15:57:38.265Z,100404.42
2019-03-26T16:00:09.536Z,100411.00
2019-03-26T16:02:38.694Z,100406.98
2019-03-26T16:05:08.502Z,100412.89
2019-03-26T16:07:37.651Z,100409.56
2019-03-26T16:10:08.060Z,100416.14
2019-03-26T16:12:41.348Z,100414.62
2019-03-26T16:15:08.264Z,100412.08
2019-03-26T16:17:37.750Z,100425.95
2019-03-26T16:20:08.563Z,100421.22
2019-03-26T16:22:37.785Z,100426.66
2019-03-26T16:25:07.732Z,100427.17
2019-03-26T16:27:36.914Z,100435.98
2019-03-26T16:30:07.818Z,100431.97
2019-03-26T16:32:37.071Z,100434.06
2019-03-26T16:35:06.783Z,100438.13
2019-03-26T16:37:36.004Z,100442.23
2019-03-26T16:40:06.978Z,100442.28
2019-03-26T16:42:36.207Z,100441.56
2019-03-26T16:45:07.108Z,100448.34
2019-03-26T16:47:36.277Z,100445.02
2019-03-26T16:50:08.348Z,100446.86
2019-03-26T16:52:37.727Z,100455.22
2019-03-26T16:55:07.395Z,100451.70
2019-03-26T16:57:36.686Z,100450.14
2019-03-26T17:00:08.483Z,100463.69
2019-03-26T17:02:37.727Z,100458.48
2019-03-26T17:05:08.247Z,100464.52
2019-03-26T17:07:37.446Z,100468.11
2019-03-26T17:10:08.267Z,100472.66
2019-03-26T17:12:38.164Z,100473.31
2019-03-26T17:15:08.467Z,100470.98
2019-03-26T17:17:37.813Z,100476.03
2019-03-26T17:20:07.741Z,100477.51
2019-03-26T17:22:36.946Z,100479.90
2019-03-26T17:25:09.485Z,100487.21
2019-03-26T17:27:38.689Z,100487.48
2019-03-26T17:30:08.605Z,100493.41
2019-03-26T17:32:37.859Z,100494.02
2019-03-26T17:35:07.834Z,100500.23
2019-03-26T17:37:37.222Z,100501.67
2019-03-26T17:40:06.583Z,100503.23
2019-03-26T17:42:35.801Z,100504.34
2019-03-26T17:45:06.406Z,100500.55
2019-03-26T17:47:35.661Z,100501.63
2019-03-26T17:50:07.284Z,100504.78
2019-03-26T17:52:36.454Z,100507.45
2019-03-26T17:55:08.001Z,100501.50
2019-03-26T17:57:37.253Z,100506.77
2019-03-26T18:00:12.634Z,100512.13
2019-03-26T18:02:41.896Z,100517.70
2019-03-26T18:05:28.615Z,100517.88
2019-03-26T18:07:58.066Z,100523.88
2019-03-26T18:10:27.276Z,100529.70
2019-03-26T18:12:56.489Z,100527.67
2019-03-26T18:15:25.750Z,100531.17
2019-03-26T18:17:54.896Z,100529.48
2019-03-26T18:20:32.577Z,100532.47
2019-03-26T18:22:54.919Z,100546.34
2019-03-26T18:25:24.145Z,100546.17
2019-03-26T18:27:53.386Z,100551.83
2019-03-26T18:30:22.955Z,100554.67
2019-03-26T18:32:52.187Z,100561.39
2019-03-26T18:35:21.417Z,100565.28
2019-03-26T18:37:50.687Z,100563.60
2019-03-26T18:40:19.847Z,100565.53
2019-03-26T18:42:49.058Z,100573.39
2019-03-26T18:45:19.767Z,100572.84
2019-03-26T18:47:48.985Z,100575.08
2019-03-26T18:50:18.522Z,100574.52
2019-03-26T18:52:47.677Z,100573.31
2019-03-26T18:55:17.092Z,100581.83
2019-03-26T18:57:46.262Z,100582.22
2019-03-26T19:00:21.315Z,100586.58
2019-03-26T19:02:50.526Z,100593.33
2019-03-26T19:05:19.693Z,100590.73
2019-03-26T19:07:48.870Z,100590.38
2019-03-26T19:10:26.438Z,100590.46
2019-03-26T19:12:57.272Z,100592.19
2019-03-26T19:15:26.749Z,100599.53
2019-03-26T19:17:55.970Z,100594.34
2019-03-26T19:20:25.375Z,100597.38
2019-03-26T19:22:54.531Z,100599.89
2019-03-26T19:25:23.764Z,100603.34
2019-03-26T19:27:52.975Z,100597.69
2019-03-26T19:30:22.289Z,100598.07
2019-03-26T19:32:51.509Z,100600.66
2019-03-26T19:35:20.751Z,100603.17
2019-03-26T19:37:49.844Z,100599.37
2019-03-26T19:40:19.199Z,100602.13
2019-03-26T19:42:48.451Z,100606.37
2019-03-26T19:45:17.870Z,100610.80
2019-03-26T19:47:47.080Z,100609.98
2019-03-26T19:50:17.428Z,100613.72
2019-03-26T19:52:46.585Z,100609.09
2019-03-26T19:55:15.794Z,100614.59
2019-03-26T19:57:45.182Z,100619.08
2019-03-26T20:00:18.118Z,100618.41
2019-03-26T20:02:47.331Z,100617.83
2019-03-26T20:05:16.623Z,100616.46
2019-03-26T20:07:45.769Z,100619.68
2019-03-26T20:10:15.568Z,100623.87
2019-03-26T20:12:44.803Z,100631.80
2019-03-26T20:15:14.894Z,100644.13
2019-03-26T20:17:44.227Z,100642.40
2019-03-26T20:20:15.323Z,100653.49
2019-03-26T20:22:44.466Z,100650.62
2019-03-26T20:25:14.441Z,100647.72
2019-03-26T20:27:43.708Z,100646.81
2019-03-26T20:30:13.348Z,100657.83
2019-03-26T20:32:42.562Z,100657.08
2019-03-26T20:35:12.313Z,100663.63
2019-03-26T20:37:41.468Z,100662.77
2019-03-26T20:40:11.668Z,100673.34
2019-03-26T20:42:40.828Z,100676.29
2019-03-26T20:45:14.387Z,100677.67
2019-03-26T20:47:43.183Z,100684.65
2019-03-26T20:50:13.020Z,100686.62
2019-03-26T20:52:42.250Z,100687.82
2019-03-26T20:55:12.859Z,100690.55
2019-03-26T20:57:42.102Z,100688.25
2019-03-26T21:00:13.272Z,100689.69
2019-03-26T21:02:42.605Z,100688.83
2019-03-26T21:05:12.273Z,100695.50
2019-03-26T21:07:41.409Z,100705.16
2019-03-26T21:10:11.190Z,100711.23
2019-03-26T21:12:40.464Z,100709.58
2019-03-26T21:15:10.522Z,100713.20
2019-03-26T21:17:39.881Z,100716.97
2019-03-26T21:20:10.514Z,100717.56
2019-03-26T21:22:39.863Z,100717.17
2019-03-26T21:25:09.657Z,100734.18
2019-03-26T21:27:38.917Z,100729.08
2019-03-26T21:30:15.385Z,100739.23
2019-03-26T21:32:41.684Z,100735.12
2019-03-26T21:35:11.748Z,100730.58
2019-03-26T21:37:40.957Z,100746.22
2019-03-26T21:40:11.152Z,100745.13
2019-03-26T21:42:40.509Z,100740.03
2019-03-26T21:45:12.081Z,100745.20
2019-03-26T21:47:41.274Z,100753.08
2019-03-26T21:50:10.629Z,100757.69
2019-03-26T21:52:40.055Z,100761.69
2019-03-26T21:55:13.061Z,100757.34
2019-03-26T21:57:40.864Z,100771.26
2019-03-26T22:00:11.033Z,100768.73
2019-03-26T22:02:40.232Z,100771.88
2019-03-26T22:05:11.389Z,100771.64
2019-03-26T22:07:40.606Z,100774.36
2019-03-26T22:10:10.379Z,100778.15
2019-03-26T22:12:39.612Z,100778.15
2019-03-26T22:15:10.099Z,100786.36
2019-03-26T22:17:39.300Z,100781.70
2019-03-26T22:20:09.432Z,100796.02
2019-03-26T22:22:38.565Z,100800.97
2019-03-26T22:25:08.868Z,100795.59
2019-03-26T22:27:38.048Z,100802.34
2019-03-26T22:30:12.949Z,100812.69
2019-03-26T22:32:42.241Z,100812.69
2019-03-26T22:35:11.980Z,100810.89
2019-03-26T22:37:41.202Z,100811.52
2019-03-26T22:40:10.799Z,100805.80
2019-03-26T22:42:39.975Z,100805.80
2019-03-26T22:45:10.194Z,100806.02
2019-03-26T22:47:42.403Z,100799.37
2019-03-26T22:50:12.567Z,100809.92
2019-03-26T22:52:41.784Z,100805.36
2019-03-26T22:55:11.892Z,100802.95
2019-03-26T22:57:41.158Z,100811.66
2019-03-26T23:00:18.553Z,100804.47
2019-03-26T23:02:47.788Z,100806.33
2019-03-26T23:05:17.519Z,100814.68
2019-03-26T23:07:46.715Z,100816.19
2019-03-26T23:10:17.863Z,100801.05
2019-03-26T23:12:47.278Z,100806.16
2019-03-26T23:15:23.061Z,100801.12
2019-03-26T23:17:52.454Z,100801.12
2019-03-26T23:20:21.722Z,100809.70
2019-03-26T23:22:50.982Z,100817.94
2019-03-26T23:25:20.311Z,100812.11
2019-03-26T23:27:49.674Z,100808.32
2019-03-26T23:30:19.284Z,100810.17
2019-03-26T23:32:48.524Z,100808.32
2019-03-26T23:35:17.743Z,100809.81
2019-03-26T23:37:46.905Z,100809.87
2019-03-26T23:40:16.385Z,100810.37
2019-03-26T23:42:45.502Z,100809.20
2019-03-26T23:45:15.112Z,100804.66
2019-03-26T23:47:44.280Z,100806.09
2019-03-26T23:50:13.991Z,100806.57
2019-03-26T23:52:43.185Z,100805.39
2019-03-26T23:55:12.926Z,100815.79
2019-03-26T23:57:42.076Z,100808.88
